Time;durP1;ratioP1;P1;durP2;ratioP2;P2;SDS_P1;SDS_P2;PMS_P1;PMS_P2;Temp;Humidity;BMP_temperature;BMP_pressure;BME280_temperature;BME280_humidity;BME280_pressure;Samples;Min_cycle;Max_cycle;Signal;HPM_P1;HPM_P2
2023/03/31 00:01:33;;;;;;;4.03;2.20;;;;;;;14.20;63.05;100171.38;4995878;28;97130;-51
2023/03/31 00:04:03;;;;;;;3.63;1.93;;;;;;;14.24;63.05;100174.63;4997765;28;96821;-52
2023/03/31 00:06:36;;;;;;;2.63;2.43;;;;;;;14.25;63.30;100165.78;4998155;28;97076;-51
2023/03/31 00:09:07;;;;;;;2.97;2.47;;;;;;;14.24;63.05;100161.50;4997684;28;96956;-49
2023/03/31 00:11:32;;;;;;;5.63;2.60;;;;;;;14.23;63.07;100164.81;4996398;28;97125;-52
2023/03/31 00:13:58;;;;;;;7.33;2.60;;;;;;;14.25;63.10;100165.03;4997758;28;97448;-50
2023/03/31 00:16:23;;;;;;;6.90;2.17;;;;;;;14.25;63.20;100160.25;4992168;28;97163;-51
2023/03/31 00:18:49;;;;;;;3.80;2.13;;;;;;;14.26;63.10;100155.47;4996633;28;97202;-51
2023/03/31 00:21:28;;;;;;;3.00;2.20;;;;;;;14.27;63.28;100156.94;4996361;28;98927;-50
2023/03/31 00:23:56;;;;;;;3.63;1.70;;;;;;;14.25;63.24;100160.25;4996680;28;96762;-51
2023/03/31 00:26:22;;;;;;;2.83;2.07;;;;;;;14.25;62.98;100154.72;4996947;28;97540;-51
2023/03/31 00:28:48;;;;;;;5.60;2.50;;;;;;;14.29;63.12;100143.34;4997867;28;96829;-51
2023/03/31 00:31:14;;;;;;;4.53;2.80;;;;;;;14.32;63.05;100144.31;4997997;28;97520;-51
2023/03/31 00:33:39;;;;;;;6.73;2.10;;;;;;;14.34;63.04;100139.75;4994158;28;97882;-51
2023/03/31 00:36:05;;;;;;;4.73;2.30;;;;;;;14.36;63.10;100137.19;4999544;28;98081;-51
2023/03/31 00:38:32;;;;;;;1.83;1.73;;;;;;;14.35;63.05;100130.16;4994434;28;97009;-51
2023/03/31 00:40:58;;;;;;;4.80;2.33;;;;;;;14.37;63.05;100122.09;4996585;28;96609;-51
2023/03/31 00:43:33;;;;;;;6.07;2.10;;;;;;;14.36;63.03;100128.88;4995711;28;97523;-51
2023/03/31 00:46:05;;;;;;;5.30;2.37;;;;;;;14.34;63.49;100123.13;4996163;28;96828;-51
2023/03/31 00:48:33;;;;;;;3.40;1.63;;;;;;;14.28;63.03;100131.50;4994325;28;97192;-50
2023/03/31 00:51:03;;;;;;;3.83;2.10;;;;;;;14.25;63.11;100115.97;4996937;28;97025;-51
2023/03/31 00:53:31;;;;;;;5.37;2.37;;;;;;;14.20;63.16;100114.03;4997715;28;97387;-51
2023/03/31 00:56:03;;;;;;;5.83;2.17;;;;;;;14.19;63.26;100120.13;4997741;28;97427;-51
2023/03/31 00:58:32;;;;;;;3.60;2.00;;;;;;;14.17;63.08;100106.81;4992932;28;96794;-49
2023/03/31 01:01:02;;;;;;;5.97;2.03;;;;;;;14.16;63.31;100110.09;4994030;28;96880;-51
2023/03/31 01:03:32;;;;;;;10.07;2.63;;;;;;;14.16;63.38;100101.81;4995912;28;96944;-51
2023/03/31 01:06:05;;;;;;;4.83;1.67;;;;;;;14.16;63.22;100096.28;4997987;28;97401;-51
2023/03/31 01:08:35;;;;;;;2.20;1.33;;;;;;;14.17;63.24;100100.53;4996151;28;97172;-51
2023/03/31 01:11:06;;;;;;;3.67;1.73;;;;;;;14.13;63.09;100098.06;4993618;28;96689;-51
2023/03/31 01:13:33;;;;;;;2.97;1.40;;;;;;;14.08;63.22;100095.41;4994612;28;97760;-51
2023/03/31 01:15:58;;;;;;;3.87;2.17;;;;;;;14.08;63.20;100084.34;4994689;28;97220;-50
2023/03/31 01:18:24;;;;;;;4.60;1.53;;;;;;;14.05;63.37;100079.88;4997230;28;97049;-49
2023/03/31 01:20:58;;;;;;;3.90;2.00;;;;;;;14.06;63.15;100075.84;4998515;28;96878;-51
2023/03/31 01:23:29;;;;;;;4.33;1.60;;;;;;;14.08;63.31;100087.13;4996825;28;96767;-50
2023/03/31 01:26:00;;;;;;;2.90;1.47;;;;;;;14.13;63.40;100077.97;4996824;28;97229;-49
2023/03/31 01:29:07;;;;;;;5.30;1.60;;;;;;;14.15;63.36;100072.66;4995971;28;97073;-51
2023/03/31 01:32:00;;;;;;;2.03;1.20;;;;;;;14.15;63.67;100064.38;4966727;28;97127;-51
2023/03/31 01:34:31;;;;;;;2.07;1.40;;;;;;;14.13;62.99;100059.34;4995317;28;97486;-51
2023/03/31 01:37:37;;;;;;;6.40;1.30;;;;;;;14.14;63.63;100049.78;4993443;28;97237;-51
2023/03/31 01:40:08;;;;;;;2.87;1.30;;;;;;;14.19;62.99;100051.72;4994746;28;97012;-51
2023/03/31 01:42:38;;;;;;;2.90;1.20;;;;;;;14.20;63.04;100053.19;4997875;28;97335;-50
2023/03/31 01:45:11;;;;;;;4.13;1.70;;;;;;;14.19;63.06;100040.63;4994386;28;97629;-52
2023/03/31 01:48:05;;;;;;;2.40;1.50;;;;;;;14.17;63.25;100031.38;4996181;28;97181;-51
2023/03/31 01:50:41;;;;;;;4.30;1.60;;;;;;;14.16;63.17;100033.41;4972888;28;97252;-50
2023/03/31 01:53:12;;;;;;;3.03;1.37;;;;;;;14.16;63.06;100027.88;4995611;28;97152;-50
2023/03/31 01:55:49;;;;;;;3.53;1.10;;;;;;;14.16;63.13;100030.63;4994402;28;96992;-51
2023/03/31 01:58:20;;;;;;;3.57;1.40;;;;;;;14.17;62.85;100021.06;4994638;28;96917;-50
2023/03/31 02:01:00;;;;;;;3.00;1.07;;;;;;;14.19;63.04;100021.28;4995541;28;96761;-50
2023/03/31 02:03:32;;;;;;;3.60;1.07;;;;;;;14.17;62.94;100015.53;4995524;28;96853;-51
2023/03/31 02:06:04;;;;;;;1.77;1.23;;;;;;;14.15;63.15;100012.53;4996877;28;97660;-51
2023/03/31 02:08:38;;;;;;;5.63;1.07;;;;;;;14.16;63.00;100004.97;4996031;28;98880;-51
2023/03/31 02:11:03;;;;;;;3.20;1.07;;;;;;;14.15;62.92;100001.47;4993553;28;96952;-51
2023/03/31 02:13:30;;;;;;;1.20;1.10;;;;;;;14.14;62.85;99997.22;4995352;28;97115;-51
2023/03/31 02:16:03;;;;;;;3.93;1.20;;;;;;;14.13;63.00;99992.94;4993921;28;97209;-51
2023/03/31 02:18:32;;;;;;;5.83;1.23;;;;;;;14.10;62.86;99990.53;4994359;28;97451;-51
2023/03/31 02:20:59;;;;;;;1.03;0.87;;;;;;;14.08;63.04;99985.53;4995515;28;97179;-51
2023/03/31 02:23:31;;;;;;;2.47;0.73;;;;;;;14.06;63.00;99984.56;4998053;28;97274;-51
2023/03/31 02:26:03;;;;;;;1.90;0.90;;;;;;;14.02;63.08;99981.38;4993872;28;97404;-52
2023/03/31 02:28:29;;;;;;;1.10;0.90;;;;;;;13.99;63.03;99971.38;4993825;28;97088;-52
2023/03/31 02:31:04;;;;;;;2.70;1.30;;;;;;;13.98;63.03;99972.63;4994127;28;96997;-49
2023/03/31 02:33:29;;;;;;;1.90;1.00;;;;;;;13.94;62.96;99980.50;4994208;28;96772;-51
2023/03/31 02:35:55;;;;;;;1.83;1.47;;;;;;;13.89;63.05;99978.63;4996837;28;97038;-51
2023/03/31 02:38:20;;;;;;;2.90;1.60;;;;;;;13.88;63.13;99960.53;4994850;28;97027;-49
2023/03/31 02:40:46;;;;;;;2.70;1.10;;;;;;;13.89;63.12;99973.81;4994573;28;97278;-51
2023/03/31 02:43:11;;;;;;;5.27;1.10;;;;;;;13.91;63.25;99967.75;4994670;28;97597;-51
2023/03/31 02:45:41;;;;;;;2.80;1.27;;;;;;;13.94;62.88;99969.44;4993196;28;96744;-51
2023/03/31 02:48:11;;;;;;;1.03;0.97;;;;;;;13.91;62.95;99973.28;4992850;28;97995;-49
2023/03/31 02:50:53;;;;;;;2.20;1.27;;;;;;;13.91;62.92;99959.47;4995186;28;96706;-51
2023/03/31 02:53:47;;;;;;;2.10;1.60;;;;;;;13.94;63.21;99959.13;4994793;28;96683;-51
2023/03/31 02:56:41;;;;;;;5.17;1.30;;;;;;;13.96;62.94;99944.78;4974405;28;97020;-50
2023/03/31 02:59:29;;;;;;;3.80;1.43;;;;;;;13.98;62.79;99942.22;4994144;28;97211;-52
2023/03/31 03:02:19;;;;;;;2.53;1.53;;;;;;;13.97;62.84;99938.72;4997037;28;97035;-51
2023/03/31 03:05:03;;;;;;;1.13;0.70;;;;;;;13.95;62.72;99929.47;4994427;28;96960;-49
2023/03/31 03:07:50;;;;;;;2.50;1.20;;;;;;;13.94;62.76;99931.47;4995005;28;97805;-50
2023/03/31 03:10:37;;;;;;;3.17;1.33;;;;;;;13.95;62.71;99937.78;4996720;28;96823;-49
2023/03/31 03:13:17;;;;;;;3.50;1.63;;;;;;;13.92;62.83;99927.75;4999044;28;97167;-50
2023/03/31 03:15:46;;;;;;;1.90;1.47;;;;;;;13.93;62.68;99924.47;5000268;28;97133;-51
2023/03/31 03:18:13;;;;;;;1.57;1.30;;;;;;;13.96;62.70;99930.94;4996425;28;96757;-49
2023/03/31 03:20:41;;;;;;;4.50;1.23;;;;;;;13.96;62.52;99931.69;4996560;28;96792;-49
2023/03/31 03:23:07;;;;;;;2.20;1.40;;;;;;;13.95;62.39;99926.72;4996228;28;97204;-51
2023/03/31 03:25:33;;;;;;;1.53;1.27;;;;;;;13.94;62.56;99917.66;4999963;28;96821;-50
2023/03/31 03:27:58;;;;;;;3.47;1.30;;;;;;;13.95;62.65;99921.19;5003660;28;97584;-51
2023/03/31 03:30:24;;;;;;;2.47;1.40;;;;;;;13.96;62.82;99908.81;4995343;28;97754;-51
2023/03/31 03:32:49;;;;;;;5.53;1.40;;;;;;;13.97;62.71;99913.09;4997612;28;97248;-51
2023/03/31 03:35:15;;;;;;;4.13;1.20;;;;;;;13.99;62.66;99911.28;4996914;28;97162;-50
2023/03/31 03:37:40;;;;;;;1.77;1.10;;;;;;;14.03;62.51;99908.19;4995392;28;97631;-51
2023/03/31 03:40:07;;;;;;;3.27;1.43;;;;;;;14.01;62.49;99902.44;4998756;28;96905;-51
2023/03/31 03:42:33;;;;;;;3.63;1.07;;;;;;;14.02;62.62;99898.41;4996661;28;96753;-49
2023/03/31 03:44:58;;;;;;;2.43;0.93;;;;;;;14.06;62.57;99888.50;4998312;28;96653;-51
2023/03/31 03:47:24;;;;;;;2.60;1.40;;;;;;;14.06;62.80;99882.22;4997756;28;97527;-50
2023/03/31 03:49:49;;;;;;;3.80;1.43;;;;;;;14.08;62.51;99882.44;4997041;28;96997;-49
2023/03/31 03:52:15;;;;;;;5.30;1.10;;;;;;;14.05;62.46;99873.19;4992660;28;97525;-51
2023/03/31 03:54:40;;;;;;;4.43;1.40;;;;;;;14.05;62.49;99862.13;4995927;28;97277;-51
2023/03/31 03:57:06;;;;;;;2.43;1.30;;;;;;;14.07;62.44;99862.31;4994141;28;96735;-51
2023/03/31 03:59:31;;;;;;;3.43;1.03;;;;;;;14.05;62.40;99859.34;4992909;28;97531;-52
2023/03/31 04:01:57;;;;;;;3.30;1.03;;;;;;;14.03;62.42;99850.84;4997727;28;96773;-51
2023/03/31 04:04:22;;;;;;;4.00;1.30;;;;;;;14.03;62.36;99850.09;4995421;28;96940;-51
2023/03/31 04:06:48;;;;;;;3.53;0.93;;;;;;;14.03;62.36;99839.78;4996192;28;97417;-51
2023/03/31 04:09:13;;;;;;;1.93;1.00;;;;;;;13.97;62.26;99833.66;4996296;28;97188;-51
2023/03/31 04:11:38;;;;;;;1.77;1.00;;;;;;;13.94;62.30;99837.47;4996740;28;97364;-51
2023/03/31 04:14:04;;;;;;;7.87;1.00;;;;;;;13.92;62.37;99828.22;4999458;28;97264;-51
2023/03/31 04:16:29;;;;;;;3.87;1.20;;;;;;;13.90;62.38;99816.94;4994564;28;97824;-51
2023/03/31 04:18:58;;;;;;;1.30;0.97;;;;;;;13.85;62.27;99821.31;4994716;28;97314;-49
2023/03/31 04:21:24;;;;;;;3.20;1.30;;;;;;;13.82;62.17;99811.34;4994587;28;97213;-51
2023/03/31 04:24:03;;;;;;;1.27;1.10;;;;;;;13.78;62.22;99810.19;4994347;28;97286;-52
2023/03/31 04:26:41;;;;;;;2.97;1.10;;;;;;;13.75;62.29;99802.94;4995380;28;97881;-51
2023/03/31 04:29:08;;;;;;;2.13;1.20;;;;;;;13.70;62.20;99812.84;4995257;28;97141;-51
2023/03/31 04:31:37;;;;;;;1.10;0.80;;;;;;;13.68;62.26;99793.28;4997072;28;96637;-50
2023/03/31 04:34:05;;;;;;;1.10;1.00;;;;;;;13.63;62.29;99790.66;4999050;28;96937;-51
2023/03/31 04:36:32;;;;;;;3.00;1.90;;;;;;;13.64;62.39;99784.56;4997141;28;96797;-51
2023/03/31 04:38:57;;;;;;;3.43;1.37;;;;;;;13.65;62.39;99783.28;4996413;28;97456;-51
2023/03/31 04:41:26;;;;;;;2.73;1.30;;;;;;;13.69;62.28;99774.69;4996871;28;96698;-52
2023/03/31 04:43:52;;;;;;;2.47;1.27;;;;;;;13.69;62.26;99769.16;4995847;28;96917;-50
2023/03/31 04:46:18;;;;;;;2.30;1.10;;;;;;;13.69;62.35;99758.84;4994155;28;97069;-52
2023/03/31 04:48:43;;;;;;;1.70;1.10;;;;;;;13.70;62.18;99759.56;4997456;28;97054;-52
2023/03/31 04:51:09;;;;;;;3.10;1.17;;;;;;;13.70;62.33;99749.25;4992771;28;97525;-52
2023/03/31 04:53:35;;;;;;;1.10;1.00;;;;;;;13.67;62.35;99749.59;4994653;28;97958;-51
2023/03/31 04:56:00;;;;;;;1.20;1.10;;;;;;;13.67;62.38;99744.06;4995832;28;98772;-48
2023/03/31 04:58:26;;;;;;;3.70;1.13;;;;;;;13.70;62.39;99738.22;4996548;28;96809;-52
2023/03/31 05:00:51;;;;;;;2.90;1.23;;;;;;;13.69;62.35;99733.97;4996335;28;97061;-52
2023/03/31 05:03:17;;;;;;;1.57;1.23;;;;;;;13.69;62.42;99728.44;4996955;28;97299;-50
2023/03/31 05:05:42;;;;;;;1.73;0.90;;;;;;;13.70;62.31;99724.38;4994824;28;96950;-52
2023/03/31 05:08:07;;;;;;;1.20;1.00;;;;;;;13.70;62.25;99718.84;4997153;28;96805;-52
2023/03/31 05:10:33;;;;;;;8.30;1.93;;;;;;;13.73;62.31;99715.03;4996076;28;97006;-49
2023/03/31 05:12:58;;;;;;;3.00;1.40;;;;;;;13.74;62.20;99713.75;4994875;28;97381;-51
2023/03/31 05:15:23;;;;;;;2.97;1.30;;;;;;;13.76;62.37;99705.66;4994872;28;106178;-52
2023/03/31 05:17:51;;;;;;;6.00;1.90;;;;;;;13.77;62.23;99707.16;4995029;28;97077;-52
2023/03/31 05:20:16;;;;;;;4.57;1.90;;;;;;;13.78;62.31;99699.59;4997577;28;97169;-52
2023/03/31 05:22:42;;;;;;;9.00;2.30;;;;;;;13.77;62.04;99698.84;4994953;28;96746;-52
2023/03/31 05:25:08;;;;;;;4.30;1.90;;;;;;;13.74;62.36;99683.34;4995102;28;97333;-52
2023/03/31 05:27:34;;;;;;;3.33;2.00;;;;;;;13.74;62.36;99685.38;4995176;28;96749;-49
2023/03/31 05:30:01;;;;;;;4.30;1.83;;;;;;;13.74;62.45;99683.34;4996246;28;97537;-49
2023/03/31 05:32:27;;;;;;;3.43;1.93;;;;;;;13.74;62.32;99683.34;4994636;28;97094;-51
2023/03/31 05:34:55;;;;;;;2.20;1.20;;;;;;;13.76;62.66;99678.00;4996496;28;97243;-52
2023/03/31 05:37:24;;;;;;;1.90;1.40;;;;;;;13.78;62.54;99669.19;4994438;28;97213;-52
2023/03/31 05:39:50;;;;;;;2.10;1.30;;;;;;;13.79;62.40;99670.66;4994412;28;96978;-50
2023/03/31 05:42:16;;;;;;;1.87;1.37;;;;;;;13.80;62.47;99672.16;4994264;28;97041;-51
2023/03/31 05:44:41;;;;;;;2.20;1.33;;;;;;;13.82;62.60;99669.59;4994779;28;97398;-51
2023/03/31 05:47:06;;;;;;;1.80;1.17;;;;;;;13.83;62.38;99669.06;4996318;28;107003;-50
2023/03/31 05:49:32;;;;;;;1.83;1.00;;;;;;;13.85;62.38;99668.50;4993644;28;96869;-52
2023/03/31 05:51:57;;;;;;;1.37;1.10;;;;;;;13.87;62.42;99671.50;4992627;28;97078;-50
2023/03/31 05:54:22;;;;;;;5.87;1.33;;;;;;;13.86;62.48;99672.78;4993714;28;97398;-51
2023/03/31 05:56:48;;;;;;;1.07;0.73;;;;;;;13.86;62.48;99678.31;4997186;28;96958;-51
2023/03/31 05:59:13;;;;;;;1.47;0.80;;;;;;;13.87;62.52;99688.81;4997085;28;97056;-50
2023/03/31 06:01:39;;;;;;;1.63;1.07;;;;;;;13.88;62.63;99675.72;4996842;28;97257;-52
2023/03/31 06:04:05;;;;;;;2.73;1.10;;;;;;;13.91;62.51;99671.91;4995097;28;97981;-52
2023/03/31 06:06:32;;;;;;;4.37;1.23;;;;;;;13.93;62.56;99681.16;4993412;28;97456;-48
2023/03/31 06:08:57;;;;;;;2.10;0.80;;;;;;;13.96;62.58;99665.47;4995485;28;96708;-52
2023/03/31 06:11:22;;;;;;;2.30;0.90;;;;;;;13.95;62.79;99666.78;4998334;28;97169;-50
2023/03/31 06:13:48;;;;;;;2.10;0.90;;;;;;;13.89;62.74;99657.88;4996899;28;97283;-50
2023/03/31 06:16:18;;;;;;;1.53;0.70;;;;;;;13.87;62.56;99661.16;4995988;28;97117;-50
2023/03/31 06:18:44;;;;;;;2.40;0.90;;;;;;;13.88;62.71;99667.44;4995410;28;96657;-52
2023/03/31 06:21:13;;;;;;;3.00;0.90;;;;;;;13.87;62.74;99654.91;4997890;28;97342;-52
2023/03/31 06:23:38;;;;;;;6.73;1.17;;;;;;;13.88;63.05;99651.59;4994651;28;97033;-51
2023/03/31 06:26:07;;;;;;;1.33;0.70;;;;;;;13.87;62.92;99646.63;4994511;28;97165;-49
2023/03/31 06:28:35;;;;;;;1.20;0.87;;;;;;;13.84;62.94;99645.66;4994938;28;97210;-52
2023/03/31 06:31:05;;;;;;;1.73;0.70;;;;;;;13.84;63.09;99639.38;4997403;28;97151;-50
2023/03/31 06:33:32;;;;;;;1.10;0.83;;;;;;;13.84;63.04;99633.88;4995787;28;96978;-47
2023/03/31 06:36:00;;;;;;;1.90;0.70;;;;;;;13.84;63.04;99634.63;4993883;28;97289;-51
2023/03/31 06:38:26;;;;;;;2.60;1.00;;;;;;;13.87;63.03;99632.78;4994000;28;97500;-51
2023/03/31 06:40:52;;;;;;;4.57;0.90;;;;;;;13.89;63.08;99641.28;4996107;28;96788;-51
2023/03/31 06:43:18;;;;;;;2.77;0.90;;;;;;;13.94;63.05;99638.38;4992735;28;97888;-51
2023/03/31 06:45:43;;;;;;;2.80;0.90;;;;;;;13.96;62.96;99635.81;4995708;28;97412;-49
2023/03/31 06:48:08;;;;;;;1.53;0.80;;;;;;;13.98;63.18;99629.72;4993293;28;97760;-51
2023/03/31 06:50:37;;;;;;;1.77;0.80;;;;;;;14.00;63.26;99630.69;4992225;28;96848;-50
2023/03/31 06:53:02;;;;;;;1.43;0.87;;;;;;;13.99;63.20;99626.44;4994681;28;97369;-52
2023/03/31 06:55:27;;;;;;;2.50;0.87;;;;;;;13.95;63.20;99626.03;4995633;28;97113;-52
2023/03/31 06:57:53;;;;;;;1.50;0.70;;;;;;;13.91;63.48;99614.56;4994700;28;96653;-52
2023/03/31 07:00:18;;;;;;;2.30;1.13;;;;;;;13.90;63.47;99626.16;4994240;28;97208;-50
2023/03/31 07:02:44;;;;;;;1.03;0.93;;;;;;;13.88;63.56;99640.53;4991957;28;98732;-51
2023/03/31 07:05:09;;;;;;;3.37;1.60;;;;;;;13.88;63.55;99623.22;4999072;28;96658;-50
2023/03/31 07:07:34;;;;;;;3.47;1.03;;;;;;;13.87;63.66;99621.75;4993252;28;96764;-50
2023/03/31 07:10:00;;;;;;;3.43;1.30;;;;;;;13.86;63.91;99615.47;4994678;28;97356;-51
2023/03/31 07:12:25;;;;;;;4.00;1.60;;;;;;;13.88;63.65;99623.22;4992260;28;97261;-52
2023/03/31 07:14:50;;;;;;;1.80;1.00;;;;;;;13.88;63.69;99615.66;4994631;28;97130;-49
2023/03/31 07:17:16;;;;;;;4.00;1.30;;;;;;;13.90;63.93;99612.34;5000668;28;96939;-51
2023/03/31 07:19:41;;;;;;;3.60;1.00;;;;;;;13.94;63.98;99604.44;4992636;28;97035;-52
2023/03/31 07:22:07;;;;;;;2.47;1.20;;;;;;;13.96;63.90;99601.88;4993160;28;96649;-49
2023/03/31 07:24:33;;;;;;;2.67;0.90;;;;;;;14.03;63.97;99607.50;4994430;28;97174;-49
2023/03/31 07:26:58;;;;;;;1.93;1.10;;;;;;;14.08;64.05;99605.88;4995803;28;96777;-49
2023/03/31 07:29:24;;;;;;;1.60;0.90;;;;;;;14.12;63.78;99611.78;4993879;28;97124;-50
2023/03/31 07:31:49;;;;;;;2.20;1.00;;;;;;;14.15;63.94;99607.94;4991234;28;97097;-49
2023/03/31 07:34:15;;;;;;;3.00;1.00;;;;;;;14.17;64.05;99597.09;4994863;28;97769;-51
2023/03/31 07:36:40;;;;;;;1.63;0.80;;;;;;;14.22;64.06;99594.16;4992508;28;97872;-51
2023/03/31 07:39:06;;;;;;;2.30;1.20;;;;;;;14.26;64.01;99589.03;4994567;28;97003;-48
2023/03/31 07:41:31;;;;;;;2.13;0.90;;;;;;;14.31;64.18;99592.22;4992761;28;97105;-51
2023/03/31 07:43:56;;;;;;;1.73;0.63;;;;;;;14.34;64.03;99585.59;4992873;28;97313;-51
2023/03/31 07:46:24;;;;;;;5.17;0.97;;;;;;;14.36;64.09;99586.53;4993164;28;97057;-51
2023/03/31 07:48:51;;;;;;;1.23;0.93;;;;;;;14.39;64.08;99582.69;4990874;28;96935;-51
2023/03/31 07:51:20;;;;;;;2.70;1.40;;;;;;;14.39;64.19;99579.19;4990902;28;97588;-48
2023/03/31 07:53:48;;;;;;;2.10;1.17;;;;;;;14.39;64.26;99585.47;4994938;28;96795;-48
2023/03/31 07:56:15;;;;;;;2.17;0.87;;;;;;;14.40;64.41;99575.13;4996019;28;97200;-51
2023/03/31 07:58:41;;;;;;;2.53;1.00;;;;;;;14.40;64.27;99569.56;4996345;28;96634;-51
2023/03/31 08:01:06;;;;;;;0.77;0.70;;;;;;;14.40;64.27;99566.81;4995759;28;97365;-49
2023/03/31 08:03:33;;;;;;;1.67;0.90;;;;;;;14.40;64.36;99558.50;4993248;28;97160;-51
2023/03/31 08:05:58;;;;;;;2.00;1.00;;;;;;;14.41;64.27;99558.00;4996762;28;97220;-51
2023/03/31 08:08:25;;;;;;;1.57;0.70;;;;;;;14.42;64.30;99553.16;4997773;28;97109;-50
2023/03/31 08:10:51;;;;;;;1.57;1.00;;;;;;;14.44;64.44;99545.81;4997414;28;97326;-51
2023/03/31 08:13:16;;;;;;;1.43;0.70;;;;;;;14.44;64.51;99547.84;4997540;28;97077;-51
2023/03/31 08:15:41;;;;;;;3.07;1.20;;;;;;;14.44;64.52;99534.03;4997156;28;97345;-50
2023/03/31 08:18:07;;;;;;;2.40;1.43;;;;;;;14.47;64.56;99530.91;4999917;28;96940;-51
2023/03/31 08:20:32;;;;;;;1.37;1.27;;;;;;;14.50;64.51;99520.75;4997535;28;96886;-50
2023/03/31 08:22:58;;;;;;;2.73;1.53;;;;;;;14.52;64.52;99524.47;4997462;28;97211;-49
2023/03/31 08:25:23;;;;;;;4.93;1.80;;;;;;;14.57;64.52;99523.53;4998214;28;96701;-51
2023/03/31 08:27:52;;;;;;;7.50;1.50;;;;;;;14.61;64.61;99510.09;4996541;28;97266;-50
2023/03/31 08:30:19;;;;;;;3.73;1.30;;;;;;;14.64;64.64;99514.53;4995755;28;97168;-51
2023/03/31 08:32:45;;;;;;;1.80;1.00;;;;;;;14.66;64.64;99509.19;4995814;28;96895;-50
2023/03/31 08:35:10;;;;;;;3.90;1.40;;;;;;;14.73;64.69;99493.91;4997885;28;96942;-49
2023/03/31 08:37:37;;;;;;;3.40;1.10;;;;;;;14.81;64.74;99500.94;4996001;28;96936;-50
2023/03/31 08:40:08;;;;;;;2.23;0.90;;;;;;;14.89;64.78;99498.22;4997091;28;96876;-51
2023/03/31 08:42:48;;;;;;;1.07;0.80;;;;;;;14.94;65.05;99489.72;5000752;28;97284;-50
2023/03/31 08:45:21;;;;;;;5.13;1.20;;;;;;;14.97;64.67;99485.84;5001670;28;97047;-51
2023/03/31 08:47:50;;;;;;;1.10;0.80;;;;;;;15.00;64.48;99484.75;4995383;28;97238;-50
2023/03/31 08:50:20;;;;;;;3.13;1.10;;;;;;;14.96;64.58;99478.81;4995887;28;97087;-51
2023/03/31 08:53:16;;;;;;;1.00;0.87;;;;;;;14.90;65.07;99481.03;4997387;28;97129;-48
2023/03/31 08:55:41;;;;;;;0.70;0.70;;;;;;;14.87;64.60;99487.66;4995211;28;96999;-51
2023/03/31 08:58:31;;;;;;;2.53;0.90;;;;;;;14.83;65.02;99472.72;4995607;28;97295;-50
2023/03/31 09:01:02;;;;;;;1.87;0.80;;;;;;;14.78;64.69;99466.06;4997075;28;96763;-51
2023/03/31 09:03:42;;;;;;;2.43;1.13;;;;;;;14.78;64.82;99462.56;4996331;28;96941;-50
2023/03/31 09:06:16;;;;;;;7.37;1.10;;;;;;;14.75;64.76;99461.63;4997714;28;96648;-51
2023/03/31 09:08:41;;;;;;;3.00;1.17;;;;;;;14.72;64.79;99468.25;4996924;28;96603;-50
2023/03/31 09:11:12;;;;;;;1.13;0.70;;;;;;;14.72;64.78;99448.84;4997695;28;96984;-50
2023/03/31 09:14:09;;;;;;;2.00;0.87;;;;;;;14.66;65.13;99448.31;4995802;28;97218;-51
2023/03/31 09:16:40;;;;;;;4.10;1.00;;;;;;;14.68;64.94;99453.28;4984611;28;97081;-50
2023/03/31 09:19:35;;;;;;;4.73;0.90;;;;;;;14.68;64.95;99439.44;4994777;28;96904;-48
2023/03/31 09:22:04;;;;;;;2.00;0.63;;;;;;;14.65;64.87;99427.47;4993722;28;96849;-50
2023/03/31 09:24:33;;;;;;;3.33;0.87;;;;;;;14.71;64.99;99441.13;4997583;28;97409;-51
2023/03/31 09:27:06;;;;;;;2.27;0.80;;;;;;;14.75;65.22;99431.16;4996072;28;96910;-47
2023/03/31 09:29:40;;;;;;;1.53;1.00;;;;;;;14.78;65.46;99429.31;4997670;28;98260;-50
2023/03/31 09:32:14;;;;;;;1.87;0.67;;;;;;;14.83;65.27;99433.97;4998374;28;97502;-49
2023/03/31 09:34:40;;;;;;;2.57;0.90;;;;;;;14.89;65.07;99420.66;4995388;28;97267;-50
2023/03/31 09:37:05;;;;;;;1.50;0.83;;;;;;;14.93;65.13;99418.28;5000246;28;97072;-50
2023/03/31 09:39:31;;;;;;;4.73;1.13;;;;;;;15.01;65.05;99428.06;4996689;28;96981;-50
2023/03/31 09:41:56;;;;;;;4.20;1.10;;;;;;;15.07;64.90;99405.00;4997042;28;97243;-50
2023/03/31 09:44:26;;;;;;;2.80;1.20;;;;;;;15.16;64.98;99407.22;4995298;28;97304;-49
2023/03/31 09:46:53;;;;;;;3.30;1.30;;;;;;;15.18;64.93;99405.34;5000066;28;98447;-50
2023/03/31 09:49:22;;;;;;;3.07;0.80;;;;;;;15.19;64.79;99408.88;4997701;28;97340;-50
2023/03/31 09:51:59;;;;;;;1.97;0.97;;;;;;;15.19;65.04;99403.31;4994930;28;97376;-48
2023/03/31 09:54:37;;;;;;;3.50;0.93;;;;;;;15.23;65.04;99398.91;4997946;28;97027;-50
2023/03/31 09:57:13;;;;;;;2.33;1.00;;;;;;;15.25;65.31;99401.09;4998921;28;97068;-50
2023/03/31 09:59:40;;;;;;;2.10;1.20;;;;;;;15.28;64.93;99392.44;4998715;28;97098;-50
2023/03/31 10:02:49;;;;;;;0.83;0.83;;;;;;;15.29;65.38;99384.88;4998875;28;98452;-49
2023/03/31 10:05:30;;;;;;;4.20;0.80;;;;;;;15.29;65.32;99382.09;4990506;28;97731;-50
2023/03/31 10:08:23;;;;;;;1.50;0.67;;;;;;;15.22;65.34;99374.53;4999344;28;97121;-49
2023/03/31 10:10:55;;;;;;;1.50;1.23;;;;;;;15.16;65.04;99374.69;4995676;28;97179;-49
2023/03/31 10:13:26;;;;;;;1.03;0.70;;;;;;;15.16;65.05;99380.22;4992702;28;97369;-50
2023/03/31 10:15:53;;;;;;;4.13;1.07;;;;;;;15.14;65.05;99380.06;4995616;28;96752;-50
2023/03/31 10:18:21;;;;;;;3.10;1.30;;;;;;;15.10;65.09;99387.25;4995971;28;97250;-50
2023/03/31 10:20:52;;;;;;;1.87;1.00;;;;;;;15.06;65.33;99376.56;4998112;28;97139;-49
2023/03/31 10:23:26;;;;;;;2.00;0.80;;;;;;;15.07;65.49;99371.75;4996635;28;96778;-47
2023/03/31 10:25:52;;;;;;;2.07;0.80;;;;;;;15.07;65.43;99375.25;4999085;28;97006;-48
2023/03/31 10:28:19;;;;;;;1.00;0.70;;;;;;;15.10;65.39;99370.63;5003358;28;96690;-48
2023/03/31 10:30:51;;;;;;;1.90;1.27;;;;;;;15.07;65.42;99366.94;4996789;28;97409;-50
2023/03/31 10:33:22;;;;;;;1.27;0.70;;;;;;;15.09;65.51;99363.63;4994296;28;97023;-50
2023/03/31 10:36:14;;;;;;;3.33;0.70;;;;;;;15.10;65.76;99365.09;4997649;28;96760;-50
2023/03/31 10:38:43;;;;;;;1.27;0.83;;;;;;;15.04;65.30;99362.53;4994490;28;96683;-49
2023/03/31 10:41:10;;;;;;;5.13;0.80;;;;;;;15.03;65.56;99361.78;4996079;28;97236;-48
2023/03/31 10:43:47;;;;;;;0.70;0.60;;;;;;;15.07;65.70;99361.41;4992831;28;96977;-49
2023/03/31 10:46:13;;;;;;;1.70;0.90;;;;;;;15.03;65.51;99361.78;4995100;28;97766;-50
2023/03/31 10:48:41;;;;;;;1.50;0.73;;;;;;;15.07;65.52;99355.13;4994262;28;97173;-48
2023/03/31 10:51:14;;;;;;;1.63;0.80;;;;;;;15.06;65.45;99353.66;4994643;28;97110;-50
2023/03/31 10:53:48;;;;;;;1.70;0.60;;;;;;;15.09;65.58;99353.28;4995084;28;97273;-48
2023/03/31 10:56:40;;;;;;;0.90;0.80;;;;;;;15.10;65.89;99354.00;4996721;28;97102;-49
2023/03/31 10:59:24;;;;;;;2.57;0.90;;;;;;;15.12;65.64;99356.97;4993856;28;97038;-50
2023/03/31 11:02:13;;;;;;;0.97;0.70;;;;;;;15.10;65.78;99351.25;4996255;28;97016;-50
2023/03/31 11:05:04;;;;;;;1.53;0.80;;;;;;;15.12;65.56;99348.66;4994834;28;97651;-50
2023/03/31 11:07:45;;;;;;;2.13;0.70;;;;;;;15.14;65.46;99348.84;4964572;28;97292;-49
2023/03/31 11:10:28;;;;;;;1.10;0.70;;;;;;;15.14;65.56;99343.28;4997456;28;97177;-50
2023/03/31 11:13:06;;;;;;;2.70;0.87;;;;;;;15.12;65.31;99349.41;4994380;28;97066;-50
2023/03/31 11:15:31;;;;;;;2.43;0.80;;;;;;;15.07;65.42;99344.78;4997966;28;97332;-50
2023/03/31 11:18:14;;;;;;;2.63;0.77;;;;;;;15.02;65.78;99343.69;4992255;28;96961;-48
2023/03/31 11:21:25;;;;;;;4.13;0.60;;;;;;;15.03;65.98;99342.38;4991950;28;97335;-47
2023/03/31 11:24:12;;;;;;;0.70;0.70;;;;;;;15.05;65.57;99339.06;4994379;28;96700;-49
2023/03/31 11:26:42;;;;;;;1.53;0.90;;;;;;;15.05;65.62;99341.09;4995638;28;97425;-50
2023/03/31 11:29:23;;;;;;;3.40;1.20;;;;;;;15.09;65.50;99344.97;4997196;28;97291;-51
2023/03/31 11:31:55;;;;;;;3.67;1.00;;;;;;;15.08;65.79;99334.44;4995185;28;97762;-50
2023/03/31 11:34:29;;;;;;;1.90;0.80;;;;;;;15.17;65.68;99336.66;4998286;28;97090;-51
2023/03/31 11:37:15;;;;;;;0.60;0.60;;;;;;;15.18;65.60;99332.59;4998946;28;97949;-47
2023/03/31 11:40:16;;;;;;;0.93;0.53;;;;;;;15.16;65.90;99333.13;4994244;28;97213;-50
2023/03/31 11:43:02;;;;;;;0.97;0.70;;;;;;;15.27;65.85;99329.25;4979278;28;97968;-50
2023/03/31 11:45:33;;;;;;;0.67;0.57;;;;;;;15.38;65.75;99331.63;4999851;28;97137;-50
2023/03/31 11:48:04;;;;;;;2.97;0.80;;;;;;;15.43;65.48;99327.94;4998302;28;98293;-50